Time;durP1;ratioP1;P1;durP2;ratioP2;P2;SDS_P1;SDS_P2;PMS_P1;PMS_P2;Temp;Humidity;BMP_temperature;BMP_pressure;BME280_temperature;BME280_humidity;BME280_pressure;Samples;Min_cycle;Max_cycle;Signal;HPM_P1;HPM_P2
2021/08/28 00:00:52;;;;;;;1.73;1.50;;;17.10;99.90;;;;;;4994308;28;20224;-77
2021/08/28 00:03:19;;;;;;;1.48;1.38;;;17.10;99.90;;;;;;4995756;28;20219;-76
2021/08/28 00:05:47;;;;;;;1.70;1.60;;;17.20;99.90;;;;;;5001889;28;20282;-80
2021/08/28 00:08:14;;;;;;;1.52;1.40;;;17.20;99.90;;;;;;5015290;28;20208;-78
2021/08/28 00:10:41;;;;;;;1.90;1.65;;;17.20;99.90;;;;;;5006763;28;20223;-78
2021/08/28 00:13:09;;;;;;;1.73;1.63;;;17.20;99.90;;;;;;5008940;28;20238;-78
2021/08/28 00:15:36;;;;;;;2.20;2.00;;;17.10;99.90;;;;;;5005981;28;20705;-79
2021/08/28 00:18:04;;;;;;;1.85;1.75;;;16.80;99.90;;;;;;5005147;28;20243;-83
2021/08/28 00:20:32;;;;;;;1.85;1.75;;;16.60;99.90;;;;;;5003354;28;20219;-77
2021/08/28 00:23:01;;;;;;;1.63;1.52;;;16.60;99.90;;;;;;5007178;28;20231;-86
2021/08/28 00:25:28;;;;;;;2.28;2.03;;;16.60;99.90;;;;;;5000781;28;20725;-79
2021/08/28 00:27:56;;;;;;;2.05;1.80;;;16.70;99.90;;;;;;4999970;28;20261;-78
2021/08/28 00:30:23;;;;;;;2.10;1.90;;;16.60;99.90;;;;;;5002075;28;20231;-82
2021/08/28 00:32:50;;;;;;;1.63;1.52;;;16.70;99.90;;;;;;5006525;28;20224;-75
2021/08/28 00:35:19;;;;;;;1.80;1.70;;;16.70;99.90;;;;;;5002811;28;20711;-80
2021/08/28 00:37:46;;;;;;;1.73;1.63;;;16.70;99.90;;;;;;5002063;28;20232;-79
2021/08/28 00:40:15;;;;;;;3.10;1.63;;;16.80;99.90;;;;;;4997042;28;20231;-78
2021/08/28 00:42:50;;;;;;;1.77;1.67;;;16.80;99.90;;;;;;5002598;28;20227;-76
2021/08/28 00:45:17;;;;;;;1.70;1.60;;;16.80;99.90;;;;;;4994118;28;20269;-79
2021/08/28 00:47:56;;;;;;;2.20;1.70;;;16.70;99.90;;;;;;5000484;28;20232;-81
2021/08/28 00:50:25;;;;;;;2.03;1.80;;;16.60;99.90;;;;;;5002616;28;20215;-78
2021/08/28 00:52:52;;;;;;;3.13;2.03;;;16.50;99.90;;;;;;4999699;28;20226;-79
2021/08/28 00:55:21;;;;;;;2.28;2.10;;;16.40;99.90;;;;;;4991047;28;20795;-78
2021/08/28 00:57:48;;;;;;;1.60;1.50;;;16.30;99.90;;;;;;4997337;28;20692;-80
2021/08/28 01:00:16;;;;;;;1.80;1.70;;;16.30;99.90;;;;;;5002022;28;20227;-80
2021/08/28 01:02:47;;;;;;;1.55;1.45;;;16.40;99.90;;;;;;5000313;28;20663;-78
2021/08/28 01:05:19;;;;;;;2.05;1.80;;;16.40;99.90;;;;;;4998483;28;20244;-78
2021/08/28 01:07:58;;;;;;;1.88;1.60;;;16.40;99.90;;;;;;5007216;28;20247;-80
2021/08/28 01:10:30;;;;;;;1.80;1.65;;;16.30;99.90;;;;;;5006570;28;20223;-79
2021/08/28 01:13:02;;;;;;;1.73;1.50;;;16.30;99.90;;;;;;5003328;28;20314;-77
2021/08/28 01:15:30;;;;;;;1.80;1.70;;;16.20;99.90;;;;;;5002641;28;20781;-78
2021/08/28 01:18:10;;;;;;;1.55;1.45;;;16.20;99.90;;;;;;5003289;28;20723;-79
2021/08/28 01:20:46;;;;;;;1.70;1.60;;;16.20;99.90;;;;;;4998145;28;20299;-78
2021/08/28 01:23:15;;;;;;;1.60;1.50;;;16.20;99.90;;;;;;5005493;28;20219;-79
2021/08/28 01:25:44;;;;;;;1.60;1.50;;;16.30;99.90;;;;;;5008061;28;20227;-81
2021/08/28 01:28:13;;;;;;;1.70;1.60;;;16.40;99.90;;;;;;5006136;28;20223;-78
2021/08/28 01:30:43;;;;;;;3.03;1.92;;;16.30;99.90;;;;;;5007951;28;20256;-78
2021/08/28 01:33:11;;;;;;;1.70;1.60;;;16.20;99.90;;;;;;5003915;28;20233;-79
2021/08/28 01:35:41;;;;;;;1.85;1.75;;;16.20;99.90;;;;;;5005550;28;20286;-78
2021/08/28 01:38:11;;;;;;;2.00;1.80;;;16.20;99.90;;;;;;5002892;28;20232;-80
2021/08/28 01:40:39;;;;;;;1.63;1.52;;;16.20;99.90;;;;;;5002550;28;20279;-79
2021/08/28 01:43:08;;;;;;;1.70;1.50;;;16.20;99.90;;;;;;5005396;28;20290;-79
2021/08/28 01:45:35;;;;;;;1.80;1.70;;;16.20;99.90;;;;;;5004536;28;20233;-82
2021/08/28 01:48:05;;;;;;;1.70;1.60;;;16.20;99.90;;;;;;5006846;28;20286;-85
2021/08/28 01:50:33;;;;;;;1.73;1.63;;;16.10;99.90;;;;;;5002914;28;20653;-81
2021/08/28 01:53:00;;;;;;;1.90;1.80;;;16.10;99.90;;;;;;5007872;28;20310;-79
2021/08/28 01:55:27;;;;;;;1.50;1.40;;;16.10;99.90;;;;;;5006846;28;20274;-80
2021/08/28 01:57:54;;;;;;;1.50;1.40;;;16.10;99.90;;;;;;5006652;28;20224;-80
2021/08/28 02:00:21;;;;;;;1.55;1.45;;;16.10;99.90;;;;;;5006348;28;20231;-79
2021/08/28 02:02:48;;;;;;;1.70;1.60;;;16.20;99.90;;;;;;5007491;28;20274;-79
2021/08/28 02:05:17;;;;;;;1.33;1.23;;;16.20;99.90;;;;;;5001888;28;20228;-81
2021/08/28 02:07:50;;;;;;;1.60;1.50;;;16.30;99.90;;;;;;4998712;28;20236;-78
2021/08/28 02:10:22;;;;;;;1.80;1.58;;;16.30;99.90;;;;;;5001894;28;20306;-79
2021/08/28 02:12:53;;;;;;;1.65;1.20;;;16.30;99.90;;;;;;4999768;28;20667;-79
2021/08/28 02:15:27;;;;;;;1.50;1.40;;;16.20;99.90;;;;;;4998370;28;20228;-79
2021/08/28 02:18:01;;;;;;;1.40;1.30;;;16.20;99.90;;;;;;5002905;28;20386;-78
2021/08/28 02:20:35;;;;;;;1.55;1.45;;;16.30;99.90;;;;;;5002424;28;20292;-77
2021/08/28 02:23:09;;;;;;;1.80;1.60;;;16.30;99.90;;;;;;5001004;28;20648;-80
2021/08/28 02:25:44;;;;;;;1.40;1.30;;;16.30;99.90;;;;;;5002783;28;20223;-83
2021/08/28 02:28:15;;;;;;;1.50;1.40;;;16.30;99.90;;;;;;5004005;28;20302;-80
2021/08/28 02:30:44;;;;;;;1.40;1.30;;;16.30;99.90;;;;;;5004185;28;20248;-78
2021/08/28 02:33:12;;;;;;;1.38;1.27;;;16.30;99.90;;;;;;5005472;28;20250;-82
2021/08/28 02:35:42;;;;;;;1.77;1.67;;;16.30;99.90;;;;;;4998559;28;20267;-79
2021/08/28 02:38:09;;;;;;;1.60;1.50;;;16.30;99.90;;;;;;5000180;28;20294;-80
2021/08/28 02:40:38;;;;;;;1.40;1.30;;;16.30;99.90;;;;;;5000120;28;20762;-78
2021/08/28 02:43:07;;;;;;;1.40;1.30;;;16.30;99.90;;;;;;5002732;28;20220;-83
2021/08/28 02:45:35;;;;;;;1.73;1.63;;;16.20;99.90;;;;;;5006918;28;20828;-79
2021/08/28 02:48:04;;;;;;;1.60;1.50;;;16.20;99.90;;;;;;5003933;28;20236;-79
2021/08/28 02:50:32;;;;;;;1.60;1.45;;;16.20;99.90;;;;;;4998654;28;20253;-79
2021/08/28 02:53:01;;;;;;;1.52;1.42;;;16.10;99.90;;;;;;5003353;28;20224;-75
2021/08/28 02:55:33;;;;;;;1.40;1.30;;;16.10;99.90;;;;;;5003520;28;20239;-80
2021/08/28 02:58:02;;;;;;;1.45;1.35;;;16.00;99.90;;;;;;5005530;28;20612;-81
2021/08/28 03:00:29;;;;;;;1.40;1.30;;;16.00;99.90;;;;;;5004909;28;20224;-81
2021/08/28 03:02:57;;;;;;;1.55;1.45;;;16.00;99.90;;;;;;5003615;28;20216;-81
2021/08/28 03:05:25;;;;;;;1.30;1.20;;;16.00;99.90;;;;;;5005440;28;20228;-81
2021/08/28 03:07:52;;;;;;;1.30;1.20;;;15.90;99.90;;;;;;5007442;28;20244;-81
2021/08/28 03:10:23;;;;;;;1.50;1.40;;;16.00;99.90;;;;;;5002297;28;20228;-80
2021/08/28 03:12:50;;;;;;;1.60;1.50;;;15.90;99.90;;;;;;5003523;28;20224;-80
2021/08/28 03:15:17;;;;;;;1.73;1.63;;;16.00;99.90;;;;;;4999875;28;20216;-79
2021/08/28 03:17:46;;;;;;;1.85;1.50;;;16.00;99.90;;;;;;5004657;28;20232;-79
2021/08/28 03:20:16;;;;;;;1.20;1.20;;;16.00;99.90;;;;;;5002152;28;20220;-79
2021/08/28 03:22:45;;;;;;;1.58;1.48;;;15.90;99.90;;;;;;4994804;28;20283;-79
2021/08/28 03:25:14;;;;;;;1.60;1.50;;;15.90;99.90;;;;;;5002917;28;20296;-78
2021/08/28 03:27:43;;;;;;;1.30;1.20;;;16.00;99.90;;;;;;4999826;28;20232;-80
2021/08/28 03:30:13;;;;;;;1.48;1.38;;;15.90;99.90;;;;;;5006272;28;20661;-81
2021/08/28 03:32:42;;;;;;;1.50;1.40;;;15.90;99.90;;;;;;5003611;28;20562;-84
2021/08/28 03:35:10;;;;;;;1.50;1.40;;;16.00;99.90;;;;;;5005689;28;20236;-84
2021/08/28 03:37:39;;;;;;;1.50;1.40;;;16.00;99.90;;;;;;5006012;28;20275;-81
2021/08/28 03:40:08;;;;;;;1.50;1.35;;;16.00;99.90;;;;;;5005189;28;20307;-79
2021/08/28 03:42:37;;;;;;;1.85;1.50;;;16.00;99.90;;;;;;5002069;28;20232;-79
2021/08/28 03:45:06;;;;;;;1.60;1.50;;;16.00;99.90;;;;;;5002052;28;20235;-77
2021/08/28 03:47:36;;;;;;;1.40;1.30;;;15.90;99.90;;;;;;4999418;28;20615;-78
2021/08/28 03:50:03;;;;;;;1.40;1.30;;;15.90;99.90;;;;;;5004683;28;20228;-80
2021/08/28 03:52:30;;;;;;;1.85;1.70;;;15.80;99.90;;;;;;5000183;28;20225;-76
2021/08/28 03:54:57;;;;;;;1.67;1.58;;;15.80;99.90;;;;;;4999448;28;20992;-81
2021/08/28 03:57:24;;;;;;;1.60;1.50;;;15.80;99.90;;;;;;5005764;28;20224;-82
2021/08/28 03:59:51;;;;;;;2.00;1.80;;;15.70;99.90;;;;;;5001017;28;20646;-81
2021/08/28 04:02:19;;;;;;;1.48;1.38;;;15.70;99.90;;;;;;5003285;28;20223;-80
2021/08/28 04:04:46;;;;;;;1.80;1.70;;;15.70;99.90;;;;;;5001959;28;20286;-81
2021/08/28 04:07:13;;;;;;;1.98;1.88;;;15.70;99.90;;;;;;4998910;28;20232;-80
2021/08/28 04:09:41;;;;;;;1.60;1.50;;;15.60;99.90;;;;;;5005197;28;20596;-79
2021/08/28 04:12:08;;;;;;;1.75;1.65;;;15.60;99.90;;;;;;5000205;28;20299;-81
2021/08/28 04:14:35;;;;;;;1.60;1.50;;;15.60;99.90;;;;;;5001875;28;20558;-81
2021/08/28 04:17:02;;;;;;;1.73;1.63;;;15.60;99.90;;;;;;5000335;28;20232;-81
2021/08/28 04:19:30;;;;;;;1.63;1.52;;;15.60;99.90;;;;;;4995493;23;20243;-77
2021/08/28 04:21:57;;;;;;;1.58;1.48;;;15.60;99.90;;;;;;5010123;28;20235;-77
2021/08/28 04:24:25;;;;;;;1.73;1.58;;;15.60;99.90;;;;;;5016174;28;20625;-76
2021/08/28 04:26:52;;;;;;;3.03;1.85;;;15.60;99.90;;;;;;5019557;28;20771;-77
2021/08/28 04:29:19;;;;;;;1.95;1.70;;;15.50;99.90;;;;;;5014355;28;20319;-76
2021/08/28 04:31:46;;;;;;;1.63;1.52;;;15.50;99.90;;;;;;5020313;28;20223;-77
2021/08/28 04:34:13;;;;;;;1.73;1.63;;;15.50;99.90;;;;;;5016970;28;20281;-77
2021/08/28 04:36:42;;;;;;;1.60;1.50;;;15.50;99.90;;;;;;5013445;28;20223;-76
2021/08/28 04:39:09;;;;;;;1.70;1.60;;;15.40;99.90;;;;;;5015498;28;20232;-77
2021/08/28 04:41:35;;;;;;;3.22;1.70;;;15.40;99.90;;;;;;5016527;28;20281;-76
2021/08/28 04:44:03;;;;;;;1.55;1.45;;;15.40;99.90;;;;;;5015674;28;20238;-77
2021/08/28 04:46:30;;;;;;;2.00;1.80;;;15.30;99.90;;;;;;5014197;28;20227;-77
2021/08/28 04:48:57;;;;;;;1.60;1.50;;;15.30;99.90;;;;;;5021250;28;20235;-76
2021/08/28 04:51:24;;;;;;;1.70;1.60;;;15.20;99.90;;;;;;5017789;28;20701;-77
2021/08/28 04:53:52;;;;;;;1.85;1.75;;;15.20;99.90;;;;;;5018679;28;20235;-76
2021/08/28 04:56:19;;;;;;;1.80;1.70;;;15.20;99.90;;;;;;5015405;28;20219;-74
2021/08/28 04:58:46;;;;;;;2.05;1.95;;;15.20;99.90;;;;;;5016655;28;20735;-77
2021/08/28 05:01:13;;;;;;;1.55;1.45;;;15.20;99.90;;;;;;5014989;28;20235;-76
2021/08/28 05:03:40;;;;;;;2.10;1.75;;;15.20;99.90;;;;;;5018798;28;20265;-77
2021/08/28 05:06:07;;;;;;;2.00;1.90;;;15.20;99.90;;;;;;5017102;28;20277;-77
2021/08/28 05:08:34;;;;;;;1.70;1.60;;;15.20;99.90;;;;;;5016385;28;20231;-76
2021/08/28 05:11:03;;;;;;;1.70;1.60;;;15.20;99.90;;;;;;5017854;28;20231;-77
2021/08/28 05:13:31;;;;;;;1.90;1.80;;;15.20;99.90;;;;;;5013213;28;20732;-76
2021/08/28 05:15:58;;;;;;;3.72;1.75;;;15.20;99.90;;;;;;5017457;28;20235;-77
2021/08/28 05:18:25;;;;;;;1.60;1.50;;;15.20;99.90;;;;;;5018454;28;20266;-76
2021/08/28 05:20:52;;;;;;;2.53;2.10;;;15.20;99.90;;;;;;5014385;28;20231;-76
2021/08/28 05:23:19;;;;;;;1.52;1.42;;;15.20;99.90;;;;;;5018008;28;20215;-76
2021/08/28 05:25:46;;;;;;;1.80;1.70;;;15.20;99.90;;;;;;5017564;28;20226;-77
2021/08/28 05:28:14;;;;;;;1.90;1.58;;;15.20;99.90;;;;;;5021916;28;20227;-76
2021/08/28 05:30:41;;;;;;;2.05;1.95;;;15.20;99.90;;;;;;5016607;28;20285;-75
2021/08/28 05:33:10;;;;;;;1.75;1.60;;;15.20;99.90;;;;;;5017841;28;20232;-77
2021/08/28 05:35:37;;;;;;;1.58;1.48;;;15.10;99.90;;;;;;5015323;28;20256;-76
2021/08/28 05:38:04;;;;;;;2.45;1.92;;;15.10;99.90;;;;;;5016067;28;20744;-76
2021/08/28 05:40:31;;;;;;;2.03;1.92;;;15.10;99.90;;;;;;5012290;28;20227;-77
2021/08/28 05:42:58;;;;;;;2.03;1.83;;;15.20;99.90;;;;;;5017473;28;20641;-77
2021/08/28 05:45:26;;;;;;;2.28;2.08;;;15.30;99.90;;;;;;5016485;28;20676;-76
2021/08/28 05:47:53;;;;;;;2.40;1.70;;;15.40;99.90;;;;;;5013436;28;20641;-77
2021/08/28 05:50:21;;;;;;;2.38;1.98;;;15.70;99.90;;;;;;5014921;28;20230;-75
2021/08/28 05:52:48;;;;;;;1.95;1.85;;;16.20;99.90;;;;;;5019980;28;20278;-77
2021/08/28 05:55:15;;;;;;;1.80;1.70;;;16.50;99.90;;;;;;5022215;28;20231;-75
2021/08/28 05:57:42;;;;;;;2.22;2.03;;;16.80;99.90;;;;;;5019250;28;20236;-77
2021/08/28 06:00:10;;;;;;;2.35;1.95;;;16.80;99.90;;;;;;5020035;28;20663;-77
2021/08/28 06:02:39;;;;;;;2.45;1.95;;;16.80;99.90;;;;;;5017246;28;20232;-77
2021/08/28 06:05:08;;;;;;;2.80;1.63;;;16.70;99.90;;;;;;5023099;28;20208;-76
2021/08/28 06:07:35;;;;;;;1.70;1.60;;;17.00;99.90;;;;;;5024106;28;20774;-78
2021/08/28 06:10:03;;;;;;;2.20;1.95;;;17.40;99.90;;;;;;5024046;28;20756;-77
2021/08/28 06:12:30;;;;;;;3.08;2.20;;;17.50;99.90;;;;;;5013205;28;20231;-76
2021/08/28 06:14:57;;;;;;;2.20;2.05;;;17.60;99.90;;;;;;5019047;28;20689;-77
2021/08/28 06:17:24;;;;;;;2.42;1.90;;;17.40;99.90;;;;;;5018604;28;20219;-77
2021/08/28 06:19:53;;;;;;;2.25;2.03;;;17.40;99.90;;;;;;5015064;28;20296;-76
2021/08/28 06:22:20;;;;;;;2.00;1.90;;;17.50;99.90;;;;;;5023291;28;20277;-77
2021/08/28 06:24:47;;;;;;;1.88;1.77;;;17.60;99.90;;;;;;5020606;28;20709;-77
2021/08/28 06:27:14;;;;;;;2.33;1.88;;;17.50;99.90;;;;;;5022022;28;20224;-77
2021/08/28 06:29:41;;;;;;;2.13;1.92;;;17.20;99.90;;;;;;5021792;28;20234;-77
2021/08/28 06:32:08;;;;;;;2.20;2.00;;;16.90;99.90;;;;;;5019584;28;20285;-76
2021/08/28 06:34:35;;;;;;;2.00;1.80;;;16.80;99.90;;;;;;5020041;28;20230;-77
2021/08/28 06:37:04;;;;;;;2.30;2.10;;;16.60;99.90;;;;;;5017787;28;20235;-77
2021/08/28 06:39:31;;;;;;;1.70;1.60;;;16.80;99.90;;;;;;5016557;28;20294;-78
2021/08/28 06:41:58;;;;;;;1.83;1.73;;;16.90;99.90;;;;;;5021141;28;20701;-76
2021/08/28 06:44:25;;;;;;;2.10;1.80;;;17.00;99.90;;;;;;5016704;28;20227;-76
2021/08/28 06:46:52;;;;;;;2.53;1.80;;;17.20;99.90;;;;;;5022349;28;20215;-76
2021/08/28 06:49:19;;;;;;;3.35;2.10;;;17.70;99.90;;;;;;5019529;28;20256;-76
2021/08/28 06:51:46;;;;;;;2.28;2.00;;;18.20;99.90;;;;;;5015359;28;20296;-76
2021/08/28 06:54:15;;;;;;;2.03;1.83;;;18.50;99.90;;;;;;5020411;28;20232;-77
2021/08/28 06:56:42;;;;;;;2.53;2.13;;;18.70;99.90;;;;;;5022020;28;20794;-76
2021/08/28 06:59:09;;;;;;;2.20;1.73;;;18.90;99.90;;;;;;5019160;28;20311;-77
2021/08/28 07:01:36;;;;;;;2.72;1.90;;;19.00;99.90;;;;;;5017472;28;20364;-76
2021/08/28 07:04:03;;;;;;;3.75;1.98;;;19.20;99.90;;;;;;5023057;28;20536;-76
2021/08/28 07:06:30;;;;;;;1.95;1.80;;;19.40;99.90;;;;;;5020786;28;20223;-77
2021/08/28 07:08:57;;;;;;;2.55;1.85;;;19.80;99.90;;;;;;5020615;28;20246;-77
2021/08/28 07:11:26;;;;;;;2.20;2.00;;;19.90;99.90;;;;;;5020335;28;20275;-76
2021/08/28 07:13:53;;;;;;;2.08;1.88;;;19.90;99.90;;;;;;5018335;28;20714;-76
2021/08/28 07:16:20;;;;;;;2.25;2.05;;;20.00;99.90;;;;;;5021202;28;20227;-77
2021/08/28 07:18:47;;;;;;;2.33;1.92;;;20.20;99.90;;;;;;5016710;28;20228;-77
2021/08/28 07:21:16;;;;;;;1.73;1.63;;;20.20;99.90;;;;;;5018807;28;20705;-76
2021/08/28 07:23:43;;;;;;;2.38;2.17;;;20.10;99.90;;;;;;5020477;28;20663;-77
2021/08/28 07:26:10;;;;;;;2.95;1.85;;;20.10;99.90;;;;;;5018216;28;20244;-77
2021/08/28 07:28:39;;;;;;;1.80;1.70;;;20.10;99.90;;;;;;5020770;28;20752;-76
2021/08/28 07:31:06;;;;;;;2.55;2.00;;;20.10;99.90;;;;;;5018254;28;20222;-76
2021/08/28 07:33:33;;;;;;;2.17;1.98;;;20.20;99.90;;;;;;5015691;28;20318;-77
2021/08/28 07:36:00;;;;;;;1.77;1.67;;;20.20;99.90;;;;;;5020369;28;20231;-77
2021/08/28 07:38:27;;;;;;;3.35;1.83;;;20.40;99.90;;;;;;5017720;28;20661;-77
2021/08/28 07:40:54;;;;;;;2.42;1.80;;;20.80;99.90;;;;;;5017972;28;20228;-77
2021/08/28 07:43:21;;;;;;;1.60;1.50;;;21.40;99.90;;;;;;5018517;28;20623;-74
2021/08/28 07:45:50;;;;;;;1.90;1.75;;;21.80;99.90;;;;;;5016335;28;20433;-76
2021/08/28 07:48:17;;;;;;;2.67;1.52;;;22.00;99.90;;;;;;5018630;28;20230;-76
2021/08/28 07:50:44;;;;;;;1.75;1.65;;;22.10;99.90;;;;;;5014971;28;20293;-73
2021/08/28 07:53:12;;;;;;;2.05;1.85;;;22.30;99.90;;;;;;5015886;28;20227;-73
2021/08/28 07:55:39;;;;;;;2.05;1.60;;;22.10;99.90;;;;;;5017715;28;20224;-73
2021/08/28 07:58:06;;;;;;;2.90;1.70;;;21.70;99.90;;;;;;5014983;28;20236;-73
2021/08/28 08:00:33;;;;;;;2.08;1.95;;;21.40;99.90;;;;;;5020635;28;20231;-73
2021/08/28 08:03:02;;;;;;;2.50;1.70;;;21.20;99.90;;;;;;5017118;28;20232;-73
2021/08/28 08:05:29;;;;;;;2.17;1.83;;;20.90;99.90;;;;;;5014134;28;20314;-73
2021/08/28 08:07:56;;;;;;;2.20;1.77;;;21.00;99.90;;;;;;5015860;28;20294;-73
2021/08/28 08:10:23;;;;;;;2.08;1.88;;;21.00;99.90;;;;;;5013509;28;20227;-73
2021/08/28 08:12:50;;;;;;;2.05;1.90;;;21.20;99.90;;;;;;5017797;28;20246;-73
2021/08/28 08:15:17;;;;;;;1.67;1.58;;;21.30;99.90;;;;;;5023736;28;20281;-72
2021/08/28 08:17:44;;;;;;;2.17;1.90;;;21.70;99.90;;;;;;5017476;28;20577;-72
2021/08/28 08:20:13;;;;;;;4.03;1.77;;;21.80;99.90;;;;;;5015548;28;20231;-73
2021/08/28 08:22:40;;;;;;;1.70;1.60;;;21.70;99.90;;;;;;5019327;28;20223;-72
2021/08/28 08:25:08;;;;;;;1.70;1.60;;;21.70;99.90;;;;;;5018739;28;20294;-72
2021/08/28 08:27:35;;;;;;;2.17;1.80;;;21.60;99.90;;;;;;5016269;28;20223;-73
2021/08/28 08:30:03;;;;;;;2.28;1.75;;;21.70;99.90;;;;;;5020421;28;20232;-72
2021/08/28 08:32:30;;;;;;;1.90;1.77;;;21.50;99.90;;;;;;5017361;28;20685;-73
2021/08/28 08:34:57;;;;;;;2.05;1.85;;;21.40;99.90;;;;;;5016024;28;20220;-73
2021/08/28 08:37:25;;;;;;;3.17;1.90;;;21.30;99.90;;;;;;5017553;28;20277;-73
2021/08/28 08:39:52;;;;;;;2.22;1.95;;;21.30;99.90;;;;;;5013445;28;20604;-71
2021/08/28 08:42:23;;;;;;;2.75;2.05;;;21.40;99.90;;;;;;5020261;28;20301;-71
2021/08/28 08:44:50;;;;;;;2.05;1.75;;;21.50;99.90;;;;;;5017749;28;20733;-74
2021/08/28 08:47:18;;;;;;;3.08;1.60;;;21.70;99.90;;;;;;5015411;28;20219;-73
2021/08/28 08:49:45;;;;;;;1.50;1.40;;;21.80;99.90;;;;;;5017768;28;20281;-74
2021/08/28 08:52:13;;;;;;;2.65;2.10;;;21.90;99.90;;;;;;5013706;28;20301;-73
2021/08/28 08:54:41;;;;;;;1.67;1.58;;;21.80;99.90;;;;;;5015118;28;20690;-74
2021/08/28 08:57:09;;;;;;;2.17;1.70;;;21.80;99.90;;;;;;5016390;28;20289;-72
2021/08/28 08:59:36;;;;;;;2.85;1.90;;;22.00;99.90;;;;;;5018561;28;20223;-73
2021/08/28 09:02:03;;;;;;;1.80;1.70;;;22.00;99.90;;;;;;5014195;28;20238;-73
2021/08/28 09:04:30;;;;;;;2.78;1.70;;;22.00;99.90;;;;;;5018627;28;20227;-73
2021/08/28 09:06:57;;;;;;;3.50;1.98;;;22.00;99.90;;;;;;5012164;28;20231;-74
2021/08/28 09:09:24;;;;;;;1.92;1.83;;;22.10;99.90;;;;;;5016952;28;20633;-73
2021/08/28 09:12:01;;;;;;;1.95;1.63;;;22.00;99.90;;;;;;5014512;28;20305;-72
2021/08/28 09:14:28;;;;;;;2.30;1.75;;;21.90;99.90;;;;;;5014908;28;20261;-71
2021/08/28 09:16:55;;;;;;;1.88;1.77;;;21.90;99.90;;;;;;5014209;28;20235;-73
2021/08/28 09:19:36;;;;;;;2.35;1.70;;;22.40;99.90;;;;;;5013666;28;20815;-73
2021/08/28 09:22:07;;;;;;;2.38;1.80;;;22.50;99.90;;;;;;5013113;28;20779;-73
2021/08/28 09:24:44;;;;;;;2.10;1.70;;;22.60;99.90;;;;;;5013452;28;20215;-73
2021/08/28 09:27:13;;;;;;;2.92;1.70;;;22.60;99.90;;;;;;5021467;28;20349;-73
2021/08/28 09:29:44;;;;;;;2.05;1.83;;;22.60;99.90;;;;;;5018990;28;20429;-73
2021/08/28 09:32:12;;;;;;;2.45;1.85;;;22.90;99.90;;;;;;5018908;28;20298;-73
2021/08/28 09:34:41;;;;;;;1.90;1.80;;;23.20;99.90;;;;;;5019093;28;20657;-73
2021/08/28 09:37:08;;;;;;;2.15;1.90;;;23.10;99.90;;;;;;5016790;28;20227;-72
2021/08/28 09:39:43;;;;;;;1.60;1.50;;;23.20;99.90;;;;;;5017346;28;20702;-73
2021/08/28 09:42:18;;;;;;;1.83;1.50;;;23.40;99.90;;;;;;5018176;28;20227;-74
2021/08/28 09:44:48;;;;;;;3.90;1.83;;;23.40;99.90;;;;;;5020362;28;20292;-74
2021/08/28 09:47:17;;;;;;;3.95;1.60;;;23.40;99.90;;;;;;5022582;28;20294;-73
2021/08/28 09:49:46;;;;;;;1.85;1.70;;;23.40;99.90;;;;;;5024637;28;20236;-73
2021/08/28 09:52:15;;;;;;;1.45;1.35;;;23.20;99.90;;;;;;5019827;28;20259;-73
2021/08/28 09:54:43;;;;;;;1.88;1.50;;;23.40;99.90;;;;;;5019364;28;20239;-74
2021/08/28 09:57:10;;;;;;;2.03;1.40;;;23.50;99.90;;;;;;5025061;28;20235;-73
2021/08/28 09:59:39;;;;;;;1.55;1.45;;;23.50;99.90;;;;;;5023713;28;20639;-74
2021/08/28 10:02:10;;;;;;;2.42;1.75;;;23.50;99.90;;;;;;5024057;28;20285;-73
2021/08/28 10:04:50;;;;;;;1.35;1.25;;;23.70;99.90;;;;;;5023292;28;20227;-73
2021/08/28 10:07:21;;;;;;;1.67;1.58;;;23.60;99.90;;;;;;5018155;28;20225;-74
2021/08/28 10:09:53;;;;;;;2.13;1.63;;;23.80;99.90;;;;;;5023918;28;20282;-74
2021/08/28 10:12:20;;;;;;;2.08;1.40;;;23.80;99.90;;;;;;5023334;28;20219;-74
2021/08/28 10:14:54;;;;;;;2.65;1.90;;;24.10;99.90;;;;;;5023903;28;20219;-74
2021/08/28 10:17:22;;;;;;;1.88;1.73;;;24.10;99.90;;;;;;5019565;28;20215;-73
2021/08/28 10:19:51;;;;;;;2.88;1.77;;;24.00;99.90;;;;;;5019999;28;20285;-74
2021/08/28 10:22:21;;;;;;;1.90;1.67;;;24.10;99.90;;;;;;5021269;28;20230;-74
2021/08/28 10:24:53;;;;;;;2.00;1.80;;;23.80;99.90;;;;;;5022823;28;20219;-74
2021/08/28 10:27:21;;;;;;;1.58;1.48;;;23.80;99.90;;;;;;4990707;23;20244;-73
2021/08/28 10:29:50;;;;;;;1.90;1.70;;;23.80;99.90;;;;;;5006432;28;20271;-73
2021/08/28 10:32:18;;;;;;;1.55;1.45;;;23.70;99.90;;;;;;4984071;28;20225;-73
2021/08/28 10:34:47;;;;;;;1.70;1.60;;;23.60;99.90;;;;;;4984152;28;20235;-73
2021/08/28 10:37:14;;;;;;;1.80;1.70;;;23.50;99.90;;;;;;4984620;28;20698;-73
2021/08/28 10:39:43;;;;;;;1.90;1.80;;;23.70;99.90;;;;;;4985889;28;21436;-74
2021/08/28 10:42:12;;;;;;;2.80;1.90;;;23.70;99.90;;;;;;4985793;28;20287;-73
2021/08/28 10:44:40;;;;;;;1.60;1.50;;;23.80;99.90;;;;;;4985574;28;20221;-73
2021/08/28 10:47:13;;;;;;;2.75;1.70;;;23.70;99.90;;;;;;4984951;28;20232;-73
2021/08/28 10:49:44;;;;;;;2.03;1.70;;;23.20;99.90;;;;;;4983310;28;20327;-74
2021/08/28 10:52:18;;;;;;;2.22;1.77;;;23.10;99.90;;;;;;4981290;28;20316;-74
2021/08/28 10:54:53;;;;;;;2.97;1.75;;;23.20;99.90;;;;;;4977418;28;20333;-74
2021/08/28 10:57:25;;;;;;;1.90;1.63;;;23.80;99.90;;;;;;4978991;28;20220;-74
2021/08/28 10:59:59;;;;;;;1.98;1.77;;;24.40;99.90;;;;;;4977578;28;20217;-74
2021/08/28 11:02:54;;;;;;;1.80;1.70;;;24.70;99.90;;;;;;4981095;28;20233;-74
2021/08/28 11:05:23;;;;;;;1.85;1.52;;;24.10;99.90;;;;;;4985336;28;20220;-73
2021/08/28 11:07:52;;;;;;;3.10;1.60;;;23.50;99.90;;;;;;4985187;28;20617;-73
2021/08/28 11:10:24;;;;;;;3.70;1.50;;;23.40;99.90;;;;;;4984400;28;20233;-73
2021/08/28 11:12:58;;;;;;;1.67;1.58;;;23.50;99.90;;;;;;4985935;28;20737;-74
2021/08/28 11:15:44;;;;;;;1.70;1.60;;;23.40;99.90;;;;;;4985810;28;20221;-74
2021/08/28 11:18:15;;;;;;;1.55;1.45;;;23.20;99.90;;;;;;4984468;28;20221;-74
2021/08/28 11:20:43;;;;;;;1.80;1.40;;;22.90;99.90;;;;;;4991822;28;20267;-74
2021/08/28 11:23:12;;;;;;;2.13;1.50;;;22.60;99.90;;;;;;4987436;28;20642;-73
2021/08/28 11:25:42;;;;;;;1.85;1.70;;;22.60;99.90;;;;;;4981278;28;20232;-74
2021/08/28 11:28:10;;;;;;;1.67;1.58;;;22.50;99.90;;;;;;4984337;28;20233;-74
2021/08/28 11:30:59;;;;;;;1.70;1.60;;;22.30;99.90;;;;;;4984300;28;20225;-74
2021/08/28 11:33:30;;;;;;;1.70;1.60;;;22.10;99.90;;;;;;4976963;28;20224;-74
2021/08/28 11:35:59;;;;;;;2.85;1.55;;;22.00;99.90;;;;;;4982917;28;20216;-74
2021/08/28 11:38:43;;;;;;;1.70;1.60;;;21.90;99.90;;;;;;4978160;28;20233;-74
2021/08/28 11:41:12;;;;;;;1.65;1.55;;;21.70;99.90;;;;;;4979630;28;20232;-74
2021/08/28 11:43:41;;;;;;;1.55;1.40;;;21.60;99.90;;;;;;4982987;28;20227;-74
2021/08/28 11:46:11;;;;;;;2.17;1.73;;;21.50;99.90;;;;;;4985025;28;20240;-74
2021/08/28 11:48:44;;;;;;;1.67;1.58;;;21.40;99.90;;;;;;4978303;28;20216;-74
2021/08/28 11:51:13;;;;;;;1.65;1.55;;;21.30;99.90;;;;;;4976791;28;20790;-74
2021/08/28 11:53:44;;;;;;;1.88;1.40;;;21.40;99.90;;;;;;4978839;28;20217;-74
2021/08/28 11:56:14;;;;;;;1.55;1.45;;;21.60;99.90;;;;;;4976600;28;20237;-73
2021/08/28 11:58:54;;;;;;;2.42;1.27;;;21.90;99.90;;;;;;4984004;28;20236;-75
2021/08/28 12:01:35;;;;;;;1.60;1.50;;;22.10;99.90;;;;;;4983344;28;20663;-74
2021/08/28 12:04:06;;;;;;;1.52;1.42;;;22.40;99.90;;;;;;4984634;28;20232;-73
2021/08/28 12:06:34;;;;;;;1.30;1.20;;;22.60;99.90;;;;;;4980881;28;20225;-74
2021/08/28 12:09:02;;;;;;;1.52;1.27;;;22.90;99.90;;;;;;4982897;28;20224;-73
2021/08/28 12:11:30;;;;;;;1.40;1.30;;;23.40;99.90;;;;;;4984692;28;20240;-73
2021/08/28 12:13:59;;;;;;;1.80;1.65;;;24.10;99.90;;;;;;4995346;28;20228;-77
2021/08/28 12:16:28;;;;;;;2.15;1.40;;;24.60;99.90;;;;;;4984850;28;20275;-76
2021/08/28 12:19:01;;;;;;;1.67;1.58;;;25.10;99.90;;;;;;4984279;28;20228;-74
2021/08/28 12:21:32;;;;;;;1.40;1.30;;;25.50;99.90;;;;;;4982115;28;20614;-74
2021/08/28 12:24:13;;;;;;;1.48;1.38;;;25.30;99.90;;;;;;4981827;28;20236;-74
2021/08/28 12:26:41;;;;;;;2.03;1.83;;;25.10;99.90;;;;;;4975328;28;20568;-74
2021/08/28 12:29:08;;;;;;;1.50;1.40;;;24.80;99.90;;;;;;4978494;28;20707;-72
2021/08/28 12:31:35;;;;;;;1.60;1.50;;;24.20;99.90;;;;;;4979320;28;20218;-74
2021/08/28 12:34:03;;;;;;;4.43;1.90;;;23.90;99.90;;;;;;4978716;28;20710;-74
2021/08/28 12:36:34;;;;;;;1.52;1.42;;;23.80;99.90;;;;;;4981062;28;20320;-74
2021/08/28 12:39:07;;;;;;;2.72;1.60;;;23.60;99.90;;;;;;4979785;28;20240;-74
2021/08/28 12:41:35;;;;;;;2.28;1.90;;;23.70;99.90;;;;;;4984714;28;20248;-74
2021/08/28 12:44:03;;;;;;;1.85;1.40;;;23.70;99.90;;;;;;4984928;28;20309;-74
2021/08/28 12:46:31;;;;;;;1.75;1.65;;;23.80;99.90;;;;;;4981263;28;20225;-74
2021/08/28 12:49:23;;;;;;;2.10;1.70;;;23.70;99.90;;;;;;4983347;28;20216;-74
2021/08/28 12:51:57;;;;;;;2.08;1.88;;;23.70;99.90;;;;;;4961117;28;20287;-74
2021/08/28 12:54:28;;;;;;;2.13;1.52;;;24.00;99.90;;;;;;4979976;28;20282;-74
2021/08/28 12:57:02;;;;;;;1.95;1.42;;;24.60;99.90;;;;;;4979137;28;20247;-74